createdAt,value
2023-04-30T00:01:15.331Z,11.50
2023-04-30T00:03:45.027Z,11.93
2023-04-30T00:06:13.772Z,11.90
2023-04-30T00:08:43.022Z,11.70
2023-04-30T00:11:13.175Z,11.67
2023-04-30T00:13:43.045Z,11.03
2023-04-30T00:16:12.279Z,12.07
2023-04-30T00:18:41.005Z,12.50
2023-04-30T00:21:12.146Z,12.30
2023-04-30T00:23:40.557Z,11.57
2023-04-30T00:26:09.265Z,11.83
2023-04-30T00:28:39.662Z,11.90
2023-04-30T00:31:09.392Z,11.77
2023-04-30T00:33:37.831Z,12.13
2023-04-30T00:36:07.105Z,11.97
2023-04-30T00:38:35.958Z,12.17
2023-04-30T00:41:04.527Z,12.23
2023-04-30T00:43:34.446Z,11.97
2023-04-30T00:46:06.782Z,11.73
2023-04-30T00:48:35.327Z,12.23
2023-04-30T00:51:05.175Z,12.17
2023-04-30T00:53:34.284Z,13.07
2023-04-30T00:56:02.744Z,12.73
2023-04-30T00:58:32.296Z,12.83
2023-04-30T01:01:00.850Z,12.67
2023-04-30T01:03:31.674Z,13.17
2023-04-30T01:06:00.888Z,12.83
2023-04-30T01:08:29.691Z,13.40
2023-04-30T01:11:06.563Z,13.47
2023-04-30T01:13:41.441Z,12.80
2023-04-30T01:16:20.464Z,12.70
2023-04-30T01:18:56.650Z,13.50
2023-04-30T01:21:26.295Z,13.73
2023-04-30T01:24:17.622Z,13.10
2023-04-30T01:27:00.910Z,12.93
2023-04-30T01:29:31.621Z,13.10
2023-04-30T01:31:59.935Z,12.77
2023-04-30T01:34:28.649Z,13.67
2023-04-30T01:37:11.110Z,13.07
2023-04-30T01:39:58.619Z,13.13
2023-04-30T01:42:34.868Z,13.40
2023-04-30T01:45:20.507Z,13.57
2023-04-30T01:47:55.506Z,13.83
2023-04-30T01:50:34.814Z,14.97
2023-04-30T01:53:07.121Z,14.13
2023-04-30T01:55:39.404Z,14.00
2023-04-30T01:58:11.436Z,13.27
2023-04-30T02:00:41.961Z,14.17
2023-04-30T02:03:10.607Z,14.07
2023-04-30T02:05:39.086Z,14.97
2023-04-30T02:08:09.827Z,14.27
2023-04-30T02:10:38.195Z,14.37
2023-04-30T02:13:06.650Z,15.03
2023-04-30T02:15:35.166Z,14.67
2023-04-30T02:18:04.992Z,14.47
2023-04-30T02:20:33.462Z,13.73
2023-04-30T02:23:02.175Z,13.80
2023-04-30T02:25:30.541Z,15.83
2023-04-30T02:27:58.810Z,13.60
2023-04-30T02:30:27.160Z,13.77
2023-04-30T02:32:55.980Z,13.67
2023-04-30T02:35:25.737Z,13.90
2023-04-30T02:37:54.148Z,13.73
2023-04-30T02:40:22.448Z,14.20
2023-04-30T02:42:51.228Z,13.90
2023-04-30T02:45:19.717Z,13.80
2023-04-30T02:47:49.154Z,14.33
2023-04-30T02:50:17.667Z,13.87
2023-04-30T02:52:48.199Z,14.13
2023-04-30T02:55:16.810Z,14.03
2023-04-30T02:57:45.125Z,13.77
2023-04-30T03:00:14.966Z,13.73
2023-04-30T03:02:43.529Z,13.43
2023-04-30T03:05:12.827Z,12.77
2023-04-30T03:07:41.531Z,9.80
2023-04-30T03:10:12.194Z,13.53
2023-04-30T03:12:41.108Z,13.07
2023-04-30T03:15:10.839Z,12.70
2023-04-30T03:17:39.209Z,12.97
2023-04-30T03:20:09.118Z,12.87
2023-04-30T03:22:38.460Z,12.60
2023-04-30T03:25:07.774Z,12.73
2023-04-30T03:27:37.440Z,12.53
2023-04-30T03:30:07.394Z,11.97
2023-04-30T03:32:36.159Z,13.13
2023-04-30T03:35:05.141Z,12.33
2023-04-30T03:37:33.603Z,12.33
2023-04-30T03:40:02.315Z,9.53
2023-04-30T03:42:30.639Z,6.63
2023-04-30T03:45:01.149Z,7.30
2023-04-30T03:47:29.851Z,12.60
2023-04-30T03:49:58.588Z,25.87
2023-04-30T03:52:26.946Z,11.83
2023-04-30T03:54:55.273Z,12.87
2023-04-30T03:57:23.959Z,12.80
2023-04-30T03:59:52.802Z,12.60
2023-04-30T04:02:23.239Z,12.63
2023-04-30T04:18:25.692Z,12.77
2023-04-30T04:20:54.236Z,12.40
2023-04-30T04:23:22.695Z,10.83
2023-04-30T04:25:52.449Z,12.03
2023-04-30T04:28:21.469Z,11.83
2023-04-30T04:30:50.341Z,12.47
2023-04-30T04:33:18.953Z,7.90
2023-04-30T04:35:48.979Z,10.27
2023-04-30T04:38:17.466Z,6.07
2023-04-30T04:40:53.909Z,9.00
2023-04-30T04:43:22.456Z,7.07
2023-04-30T04:45:52.392Z,7.27
2023-04-30T04:48:21.024Z,12.50
2023-04-30T04:50:50.985Z,6.70
2023-04-30T04:53:19.474Z,7.70
2023-04-30T04:55:47.992Z,11.23
2023-04-30T04:58:16.764Z,13.57
2023-04-30T05:00:46.045Z,13.03
2023-04-30T05:03:14.708Z,11.30
2023-04-30T05:05:47.371Z,11.13
2023-04-30T05:08:17.673Z,10.60
2023-04-30T05:10:46.222Z,11.23
2023-04-30T05:13:14.757Z,10.90
2023-04-30T05:15:43.503Z,10.33
2023-04-30T05:18:12.182Z,10.00
2023-04-30T05:20:40.731Z,10.60
2023-04-30T05:23:09.804Z,10.60
2023-04-30T05:53:22.762Z,12.27
2023-04-30T05:55:52.751Z,12.03
2023-04-30T05:58:21.299Z,12.23
2023-04-30T06:00:52.122Z,12.60
2023-04-30T06:03:21.123Z,11.77
2023-04-30T06:05:49.857Z,11.83
2023-04-30T06:08:18.663Z,11.70
2023-04-30T06:10:47.362Z,11.33
2023-04-30T06:13:17.459Z,11.63
2023-04-30T06:15:46.226Z,11.73
2023-04-30T06:18:15.486Z,10.87
2023-04-30T06:20:44.086Z,10.60
2023-04-30T06:23:12.678Z,10.20
2023-04-30T06:25:41.642Z,9.50
2023-04-30T06:28:13.053Z,9.17
2023-04-30T06:30:43.212Z,8.47
2023-04-30T06:33:11.778Z,8.60
2023-04-30T06:35:40.626Z,7.87
2023-04-30T06:38:09.208Z,7.90
2023-04-30T06:40:37.891Z,7.50
2023-04-30T06:43:06.559Z,8.00
2023-04-30T06:45:35.594Z,7.47
2023-04-30T06:48:05.844Z,7.77
2023-04-30T06:50:34.431Z,7.83
2023-04-30T06:53:03.089Z,8.10
2023-04-30T06:55:31.618Z,7.83
2023-04-30T06:58:00.559Z,7.23
2023-04-30T07:00:29.169Z,7.20
2023-04-30T07:03:00.792Z,7.77
2023-04-30T07:05:30.996Z,7.70
2023-04-30T07:07:59.723Z,7.33
2023-04-30T07:10:28.353Z,7.67
2023-04-30T07:12:58.024Z,6.50
2023-04-30T07:15:26.656Z,6.83
2023-04-30T07:17:55.397Z,5.97
2023-04-30T07:20:28.123Z,6.20
2023-04-30T07:22:58.621Z,6.30
2023-04-30T07:25:27.221Z,5.97
2023-04-30T07:27:56.960Z,5.73
2023-04-30T07:30:25.642Z,6.30
2023-04-30T07:32:54.625Z,6.50
2023-04-30T07:35:23.338Z,6.23
2023-04-30T07:37:52.034Z,5.87
2023-04-30T07:40:29.074Z,6.17
2023-04-30T07:43:04.261Z,5.40
2023-04-30T07:45:34.165Z,5.40
2023-04-30T07:48:03.331Z,5.67
2023-04-30T07:50:34.294Z,6.17
2023-04-30T07:53:09.458Z,5.00
2023-04-30T07:55:39.456Z,4.97
2023-04-30T07:58:08.776Z,4.27
2023-04-30T08:00:37.717Z,4.37
2023-04-30T08:03:06.575Z,4.17
2023-04-30T08:05:35.280Z,3.90
2023-04-30T08:08:04.345Z,4.70
2023-04-30T08:10:33.450Z,3.90
2023-04-30T08:13:03.531Z,3.80
2023-04-30T08:15:32.320Z,3.87
2023-04-30T08:18:01.089Z,3.90
2023-04-30T08:20:29.976Z,4.00
2023-04-30T08:23:00.708Z,4.20
2023-04-30T08:25:29.770Z,3.63
2023-04-30T08:27:58.314Z,4.03
2023-04-30T08:30:28.592Z,3.53
2023-04-30T08:32:57.912Z,3.53
2023-04-30T08:35:26.816Z,3.80
2023-04-30T08:37:55.651Z,3.83
2023-04-30T08:40:43.824Z,3.70
2023-04-30T08:43:15.002Z,4.10
2023-04-30T08:45:45.182Z,4.40
2023-04-30T08:48:15.862Z,4.60
2023-04-30T08:50:44.675Z,4.30
2023-04-30T08:53:17.578Z,4.40
2023-04-30T08:55:46.783Z,4.60
2023-04-30T08:58:15.541Z,4.10
2023-04-30T09:00:45.791Z,4.33
2023-04-30T09:03:14.817Z,4.30
2023-04-30T09:05:43.654Z,4.00
2023-04-30T09:08:20.627Z,3.63
2023-04-30T09:10:49.360Z,4.50
2023-04-30T09:13:18.102Z,4.03
2023-04-30T09:15:54.028Z,4.20
2023-04-30T09:18:22.791Z,3.80
2023-04-30T09:20:59.320Z,3.30
2023-04-30T09:23:28.488Z,3.60
2023-04-30T09:25:57.809Z,3.90
2023-04-30T09:28:29.002Z,4.00
2023-04-30T09:30:59.480Z,4.10
2023-04-30T09:33:28.275Z,4.40
2023-04-30T09:35:57.237Z,3.97
2023-04-30T09:38:30.677Z,4.40
2023-04-30T09:41:01.602Z,4.27
2023-04-30T09:43:31.123Z,3.93
2023-04-30T09:46:02.215Z,3.70
2023-04-30T09:48:31.739Z,3.90
2023-04-30T09:51:04.919Z,4.17
2023-04-30T09:53:35.115Z,3.30
2023-04-30T09:56:08.412Z,3.60
2023-04-30T09:58:39.545Z,4.20
2023-04-30T10:01:12.318Z,4.07
2023-04-30T10:03:42.587Z,3.70
2023-04-30T10:06:15.788Z,4.10
2023-04-30T10:08:45.883Z,4.23
2023-04-30T10:11:19.967Z,4.00
2023-04-30T10:13:55.594Z,4.07
2023-04-30T10:16:35.906Z,3.17
2023-04-30T10:19:09.808Z,3.10
2023-04-30T10:21:44.418Z,3.77
2023-04-30T10:24:15.201Z,3.70
2023-04-30T10:26:45.127Z,3.67
2023-04-30T10:29:16.081Z,3.50
2023-04-30T10:31:49.802Z,3.97
2023-04-30T10:34:27.496Z,3.07
2023-04-30T10:37:00.671Z,3.17
2023-04-30T10:39:29.938Z,3.20
2023-04-30T10:42:06.758Z,2.90
2023-04-30T10:44:36.144Z,3.10
2023-04-30T10:47:07.907Z,3.20
2023-04-30T10:49:36.646Z,3.40
2023-04-30T10:52:06.873Z,2.97
2023-04-30T10:54:37.381Z,2.50
2023-04-30T10:57:14.771Z,2.70
2023-04-30T10:59:54.513Z,2.70
2023-04-30T11:02:25.737Z,3.03
2023-04-30T11:05:15.007Z,2.10
2023-04-30T11:07:53.874Z,2.67
2023-04-30T11:10:28.046Z,2.67
2023-04-30T11:12:59.410Z,2.70
2023-04-30T11:15:36.547Z,3.13
2023-04-30T11:18:08.960Z,2.93
2023-04-30T11:20:43.242Z,2.43
2023-04-30T11:23:22.182Z,2.60
2023-04-30T11:25:59.978Z,2.27
2023-04-30T11:28:31.218Z,2.53
2023-04-30T11:31:01.921Z,2.43
2023-04-30T11:33:33.588Z,2.43
2023-04-30T11:36:03.456Z,2.10
2023-04-30T11:38:35.605Z,2.60
2023-04-30T11:41:05.433Z,2.30
2023-04-30T11:43:35.592Z,2.50
2023-04-30T11:46:08.608Z,2.10
2023-04-30T11:48:40.062Z,2.43
2023-04-30T11:51:17.629Z,2.50
2023-04-30T11:53:49.575Z,2.37
2023-04-30T11:56:20.969Z,2.40
2023-04-30T11:58:51.104Z,2.10
2023-04-30T12:01:21.372Z,2.87
2023-04-30T12:03:53.622Z,2.23
2023-04-30T12:06:26.636Z,2.80
2023-04-30T12:08:56.415Z,2.40
2023-04-30T12:11:26.961Z,2.10
2023-04-30T12:13:57.313Z,2.00
2023-04-30T12:16:27.130Z,2.40
2023-04-30T12:19:10.560Z,2.40
2023-04-30T12:21:57.149Z,2.20
2023-04-30T12:24:29.223Z,2.90
2023-04-30T12:27:01.101Z,2.40
2023-04-30T12:29:29.839Z,2.73
2023-04-30T12:31:58.733Z,2.23
2023-04-30T12:34:32.212Z,5.70
2023-04-30T12:37:03.391Z,2.30
2023-04-30T12:39:36.994Z,1.90
2023-04-30T12:42:05.886Z,1.60
2023-04-30T12:44:44.900Z,1.70
2023-04-30T12:47:14.551Z,1.87
2023-04-30T12:49:47.310Z,1.70
2023-04-30T12:52:17.054Z,2.20
2023-04-30T12:54:45.979Z,1.97
2023-04-30T12:57:15.363Z,1.40
2023-04-30T12:59:58.935Z,1.67
2023-04-30T13:02:29.217Z,5.33
2023-04-30T13:04:59.874Z,2.40
2023-04-30T13:07:37.746Z,2.07
2023-04-30T13:10:07.436Z,1.70
2023-04-30T13:12:36.209Z,1.57
2023-04-30T13:15:05.458Z,1.20
2023-04-30T13:17:34.612Z,2.27
2023-04-30T13:20:05.072Z,1.40
2023-04-30T13:22:34.250Z,0.90
2023-04-30T13:25:03.408Z,1.40
2023-04-30T13:27:32.236Z,1.10
2023-04-30T13:30:01.541Z,1.47
2023-04-30T13:32:30.274Z,2.40
2023-04-30T13:34:59.016Z,5.07
2023-04-30T13:37:31.340Z,1.97
2023-04-30T13:40:01.713Z,1.97
2023-04-30T13:42:30.468Z,2.13
2023-04-30T13:44:59.215Z,1.63
2023-04-30T13:47:28.015Z,1.57
2023-04-30T13:49:57.505Z,1.20
2023-04-30T13:52:26.312Z,1.40
2023-04-30T13:54:57.454Z,3.17
2023-04-30T13:57:26.364Z,1.80
2023-04-30T13:59:56.445Z,2.80
2023-04-30T14:02:25.728Z,1.30
2023-04-30T14:05:05.379Z,1.27
2023-04-30T14:07:35.395Z,3.80
2023-04-30T14:10:06.199Z,8.57
2023-04-30T14:12:35.014Z,1.73
2023-04-30T14:15:03.984Z,1.13
2023-04-30T14:17:33.036Z,3.30
2023-04-30T14:20:02.043Z,1.20
2023-04-30T14:22:31.393Z,1.10
2023-04-30T14:25:00.313Z,1.13
2023-04-30T14:27:35.181Z,1.73
2023-04-30T14:30:05.453Z,0.97
2023-04-30T14:32:38.007Z,0.70
2023-04-30T14:35:11.514Z,1.20
2023-04-30T14:37:40.814Z,1.20
2023-04-30T14:40:10.991Z,1.27
2023-04-30T14:42:48.445Z,1.60
2023-04-30T14:45:17.635Z,2.77
2023-04-30T14:47:46.685Z,1.60
2023-04-30T14:50:15.648Z,2.70
2023-04-30T14:52:44.767Z,2.80
2023-04-30T14:55:13.594Z,1.97
2023-04-30T14:57:43.918Z,1.13
2023-04-30T15:00:14.647Z,0.87
2023-04-30T15:02:43.353Z,1.83
2023-04-30T15:05:12.508Z,1.20
2023-04-30T15:07:41.293Z,1.00
2023-04-30T15:10:11.599Z,0.80
2023-04-30T15:12:40.604Z,0.90
2023-04-30T15:15:12.082Z,1.20
2023-04-30T15:17:41.590Z,0.90
2023-04-30T15:20:11.318Z,0.93
2023-04-30T15:22:40.115Z,1.30
2023-04-30T15:25:09.676Z,2.27
2023-04-30T15:27:41.513Z,1.20
2023-04-30T15:30:12.861Z,1.00
2023-04-30T15:32:42.050Z,2.63
2023-04-30T15:35:11.321Z,2.50
2023-04-30T15:37:40.168Z,1.53
2023-04-30T15:40:15.815Z,2.40
2023-04-30T15:42:45.026Z,3.33
2023-04-30T15:45:15.467Z,2.60
2023-04-30T15:47:44.974Z,5.87
2023-04-30T15:50:13.892Z,1.00
2023-04-30T15:52:42.891Z,3.43
2023-04-30T15:55:11.859Z,3.17
2023-04-30T15:57:41.130Z,2.33
2023-04-30T16:00:11.452Z,4.33
2023-04-30T16:02:41.799Z,1.50
2023-04-30T16:05:11.161Z,0.90
2023-04-30T16:07:43.062Z,0.83
2023-04-30T16:10:13.409Z,2.23
2023-04-30T16:12:42.582Z,0.80
2023-04-30T16:15:12.817Z,3.17
2023-04-30T16:17:43.269Z,0.90
2023-04-30T16:20:13.686Z,2.33
2023-04-30T16:22:42.673Z,14.50
2023-04-30T16:25:12.120Z,2.00
2023-04-30T16:27:40.918Z,2.13
2023-04-30T16:30:10.827Z,3.90
2023-04-30T16:32:39.988Z,1.43
2023-04-30T16:35:11.228Z,0.77
2023-04-30T16:37:40.208Z,1.10
2023-04-30T16:40:10.365Z,1.07
2023-04-30T16:42:39.239Z,1.17
2023-04-30T16:45:09.842Z,1.10
2023-04-30T16:47:38.951Z,0.60
2023-04-30T16:50:10.795Z,0.77
2023-04-30T16:52:39.846Z,1.10
2023-04-30T16:55:10.590Z,0.90
2023-04-30T16:57:39.533Z,0.80
2023-04-30T17:00:15.436Z,1.13
2023-04-30T17:02:45.871Z,1.10
2023-04-30T17:05:16.885Z,1.20
2023-04-30T17:07:46.130Z,1.30
2023-04-30T17:10:15.758Z,1.07
2023-04-30T17:12:44.800Z,1.07
2023-04-30T17:15:14.091Z,1.00
2023-04-30T17:17:42.981Z,0.90
2023-04-30T17:20:12.880Z,1.27
2023-04-30T17:22:44.380Z,1.20
2023-04-30T17:25:14.094Z,1.30
2023-04-30T17:27:42.933Z,1.17
2023-04-30T17:30:12.181Z,1.07
2023-04-30T17:32:41.238Z,0.90
2023-04-30T17:35:11.122Z,0.90
2023-04-30T17:37:39.917Z,0.77
2023-04-30T17:40:12.079Z,1.00
2023-04-30T17:42:41.189Z,1.10
2023-04-30T17:45:10.827Z,0.90
2023-04-30T17:47:40.266Z,1.10
2023-04-30T17:50:09.831Z,1.00
2023-04-30T17:52:39.036Z,1.03
2023-04-30T17:55:10.586Z,0.97
2023-04-30T17:57:39.824Z,0.87
2023-04-30T18:00:10.209Z,1.17
2023-04-30T18:02:39.365Z,1.50
2023-04-30T18:05:08.808Z,1.03
2023-04-30T18:07:37.746Z,1.10
2023-04-30T18:10:07.537Z,0.90
2023-04-30T18:12:38.919Z,1.07
2023-04-30T18:15:08.726Z,0.90
2023-04-30T18:17:38.172Z,0.80
2023-04-30T18:20:08.393Z,1.20
2023-04-30T18:22:42.665Z,1.00
2023-04-30T18:25:13.268Z,1.20
2023-04-30T18:27:44.164Z,0.87
2023-04-30T18:30:13.701Z,1.20
2023-04-30T18:32:44.584Z,1.20
2023-04-30T18:35:13.592Z,1.17
2023-04-30T18:37:42.739Z,1.30
2023-04-30T18:40:12.371Z,1.00
2023-04-30T18:42:42.992Z,1.00
2023-04-30T18:45:12.523Z,0.90
2023-04-30T18:47:41.896Z,1.07
2023-04-30T18:50:15.577Z,1.23
2023-04-30T18:52:44.891Z,1.07
2023-04-30T18:55:15.268Z,1.00
2023-04-30T18:57:45.608Z,1.17
2023-04-30T19:00:15.737Z,1.27
2023-04-30T19:02:44.901Z,1.00
2023-04-30T19:05:14.958Z,1.20
2023-04-30T19:07:44.073Z,1.27
2023-04-30T19:10:13.410Z,1.30
2023-04-30T19:12:44.203Z,0.97
2023-04-30T19:15:15.724Z,1.13
2023-04-30T19:17:44.721Z,1.10
2023-04-30T19:20:14.747Z,1.37
2023-04-30T19:22:43.789Z,1.30
2023-04-30T19:25:13.465Z,1.20
2023-04-30T19:27:44.229Z,1.20
2023-04-30T19:30:16.482Z,1.20
2023-04-30T19:32:45.360Z,1.40
2023-04-30T19:35:14.603Z,1.37
2023-04-30T19:37:43.398Z,1.50
2023-04-30T19:40:13.164Z,1.30
2023-04-30T19:42:41.909Z,1.10
2023-04-30T19:45:11.932Z,1.70
2023-04-30T19:47:42.182Z,1.40
2023-04-30T19:50:11.798Z,1.60
2023-04-30T19:52:40.603Z,1.50
2023-04-30T19:55:10.637Z,1.50
2023-04-30T19:57:39.825Z,1.23
2023-04-30T20:00:13.043Z,1.63
2023-04-30T20:02:43.980Z,1.50
2023-04-30T20:05:13.547Z,1.50
2023-04-30T20:07:42.448Z,2.00
2023-04-30T20:10:12.188Z,1.83
2023-04-30T20:12:41.162Z,1.70
2023-04-30T20:15:11.538Z,1.30
2023-04-30T20:17:40.525Z,1.97
2023-04-30T20:20:12.787Z,1.53
2023-04-30T20:22:42.284Z,1.70
2023-04-30T20:25:11.694Z,1.80
2023-04-30T20:27:40.805Z,1.37
2023-04-30T20:30:10.974Z,1.60
2023-04-30T20:32:40.704Z,1.83
2023-04-30T20:35:11.851Z,1.47
2023-04-30T20:37:40.814Z,1.60
2023-04-30T20:40:10.736Z,1.73
2023-04-30T20:42:40.953Z,1.53
2023-04-30T20:45:11.715Z,2.00
2023-04-30T20:47:42.056Z,2.03
2023-04-30T20:50:12.773Z,1.67
2023-04-30T20:52:41.716Z,1.60
2023-04-30T20:55:11.257Z,1.60
2023-04-30T20:57:40.369Z,1.47
2023-04-30T21:00:10.581Z,1.60
2023-04-30T21:02:39.904Z,1.73
2023-04-30T21:05:10.426Z,1.87
2023-04-30T21:07:40.931Z,1.70
2023-04-30T21:10:10.497Z,2.00
2023-04-30T21:12:39.413Z,2.07
2023-04-30T21:15:09.272Z,2.07
2023-04-30T21:17:38.186Z,2.20
2023-04-30T21:20:08.205Z,1.60
2023-04-30T21:22:37.194Z,2.00
2023-04-30T21:25:11.068Z,1.80
2023-04-30T21:27:39.954Z,2.20
2023-04-30T21:30:10.517Z,1.97
2023-04-30T21:32:40.056Z,1.80
2023-04-30T21:35:09.412Z,1.90
2023-04-30T21:37:38.830Z,2.00
2023-04-30T21:40:10.467Z,2.00
2023-04-30T21:42:39.286Z,2.07
2023-04-30T21:45:10.117Z,1.70
2023-04-30T21:47:39.052Z,1.80
2023-04-30T21:50:09.309Z,1.70
2023-04-30T21:52:38.102Z,1.87
2023-04-30T21:55:10.061Z,2.20
2023-04-30T21:57:38.814Z,1.77
2023-04-30T22:00:14.630Z,1.97
2023-04-30T22:02:43.669Z,2.00
2023-04-30T22:05:13.627Z,2.17
2023-04-30T22:07:43.120Z,2.00
2023-04-30T22:10:15.000Z,2.20
2023-04-30T22:12:47.356Z,1.80
2023-04-30T22:15:17.296Z,1.97
2023-04-30T22:17:46.501Z,2.60
2023-04-30T22:20:15.457Z,2.73
2023-04-30T22:22:44.237Z,2.17
2023-04-30T22:25:14.880Z,2.70
2023-04-30T22:27:43.639Z,2.27
2023-04-30T22:30:12.818Z,2.20
2023-04-30T22:32:42.516Z,2.37
2023-04-30T22:35:12.270Z,2.37
2023-04-30T22:37:41.168Z,2.37
2023-04-30T22:40:10.953Z,2.70
2023-04-30T22:42:41.902Z,2.50
2023-04-30T22:45:12.208Z,2.73
2023-04-30T22:47:42.301Z,2.57
2023-04-30T22:50:11.929Z,2.50
2023-04-30T22:52:40.650Z,2.47
2023-04-30T22:55:10.067Z,2.67
2023-04-30T22:57:40.521Z,2.70
2023-04-30T23:00:10.667Z,2.87
2023-04-30T23:02:39.332Z,2.50
2023-04-30T23:05:09.180Z,2.60
2023-04-30T23:07:37.930Z,2.60
2023-04-30T23:10:07.301Z,2.73
2023-04-30T23:12:36.523Z,2.90
2023-04-30T23:15:07.788Z,2.63
2023-04-30T23:17:36.849Z,2.70
2023-04-30T23:20:06.243Z,3.23
2023-04-30T23:22:34.923Z,2.90
2023-04-30T23:25:03.658Z,3.03
2023-04-30T23:27:32.351Z,3.30
2023-04-30T23:30:01.059Z,3.30
2023-04-30T23:32:31.714Z,3.30
2023-04-30T23:35:00.889Z,3.17
2023-04-30T23:37:29.512Z,3.23
2023-04-30T23:39:58.470Z,3.13
2023-04-30T23:42:27.149Z,3.57
2023-04-30T23:44:56.073Z,3.40
2023-04-30T23:47:24.837Z,3.70
2023-04-30T23:49:55.152Z,3.20
2023-04-30T23:52:24.001Z,3.53
2023-04-30T23:54:52.777Z,3.40
2023-04-30T23:57:21.677Z,3.60
2023-04-30T23:59:50.679Z,3.93
